Time;durP1;ratioP1;P1;durP2;ratioP2;P2;SDS_P1;SDS_P2;PMS_P1;PMS_P2;Temp;Humidity;BMP_temperature;BMP_pressure;BME280_temperature;BME280_humidity;BME280_pressure;Samples;Min_cycle;Max_cycle;Signal;HPM_P1;HPM_P2
2022/02/20 00:00:06;;;;;;;3.73;1.70;;;5.10;99.90;;;;;;5077433;28;20454;-71
2022/02/20 00:02:34;;;;;;;4.50;1.77;;;5.10;99.90;;;;;;5077121;28;20454;-71
2022/02/20 00:05:01;;;;;;;4.87;1.83;;;4.90;99.90;;;;;;5077093;28;20454;-71
2022/02/20 00:07:28;;;;;;;3.53;1.87;;;4.90;99.90;;;;;;5075562;28;20450;-70
2022/02/20 00:09:54;;;;;;;6.90;1.97;;;4.80;99.90;;;;;;5075604;28;20450;-70
2022/02/20 00:12:24;;;;;;;3.60;1.70;;;4.80;99.90;;;;;;5077046;28;20791;-71
2022/02/20 00:14:51;;;;;;;5.13;2.10;;;4.70;99.90;;;;;;5077324;28;20458;-71
2022/02/20 00:17:17;;;;;;;3.60;1.83;;;4.70;99.90;;;;;;5076629;28;20783;-70
2022/02/20 00:19:47;;;;;;;2.63;1.80;;;4.70;99.90;;;;;;5076689;28;20458;-70
2022/02/20 00:22:13;;;;;;;4.83;2.37;;;4.60;99.90;;;;;;5076705;28;20492;-71
2022/02/20 00:24:40;;;;;;;3.40;2.00;;;4.70;99.90;;;;;;5075506;28;20485;-70
2022/02/20 00:27:07;;;;;;;11.00;2.07;;;4.60;99.90;;;;;;5075474;28;20640;-70
2022/02/20 00:29:34;;;;;;;2.47;1.50;;;4.60;99.90;;;;;;5074791;28;20465;-71
2022/02/20 00:32:02;;;;;;;3.43;2.23;;;4.70;99.90;;;;;;5075212;28;20435;-71
2022/02/20 00:34:29;;;;;;;4.50;2.10;;;4.70;99.90;;;;;;5074590;28;20450;-70
2022/02/20 00:36:57;;;;;;;11.20;2.30;;;4.70;99.90;;;;;;5075006;28;20457;-70
2022/02/20 00:39:23;;;;;;;3.60;1.90;;;4.70;99.90;;;;;;5074788;28;20454;-71
2022/02/20 00:41:50;;;;;;;4.13;1.77;;;4.70;99.90;;;;;;5077910;28;20948;-71
2022/02/20 00:44:17;;;;;;;6.20;1.93;;;4.80;99.90;;;;;;5078373;28;20482;-70
2022/02/20 00:46:43;;;;;;;7.03;1.77;;;4.70;99.90;;;;;;5078659;28;20465;-69
2022/02/20 00:49:10;;;;;;;5.50;2.30;;;4.70;99.90;;;;;;5077900;28;20454;-71
2022/02/20 00:51:38;;;;;;;2.73;1.90;;;4.70;99.90;;;;;;5078256;28;20461;-71
2022/02/20 00:54:08;;;;;;;3.70;1.80;;;4.60;99.90;;;;;;5078092;28;20450;-70
2022/02/20 00:56:34;;;;;;;3.40;2.03;;;4.40;99.90;;;;;;5078152;28;20887;-70
2022/02/20 00:59:01;;;;;;;5.20;1.73;;;4.40;99.90;;;;;;5078396;28;20458;-69
2022/02/20 01:01:28;;;;;;;6.53;2.33;;;4.30;99.90;;;;;;5078221;28;20484;-70
2022/02/20 01:03:55;;;;;;;4.63;2.00;;;4.20;99.90;;;;;;5078005;28;20493;-70
2022/02/20 01:06:22;;;;;;;2.30;1.80;;;4.10;99.90;;;;;;5078032;28;20454;-71
2022/02/20 01:08:48;;;;;;;7.70;1.80;;;4.00;99.90;;;;;;5078176;28;20475;-71
2022/02/20 01:11:17;;;;;;;4.17;1.97;;;3.90;99.90;;;;;;5078034;28;20922;-71
2022/02/20 01:13:44;;;;;;;5.40;2.10;;;3.90;99.90;;;;;;5077434;28;20446;-71
2022/02/20 01:16:13;;;;;;;3.63;2.03;;;3.90;99.90;;;;;;5078062;28;20454;-71
2022/02/20 01:18:39;;;;;;;2.23;1.60;;;3.90;99.90;;;;;;5077751;28;20461;-71
2022/02/20 01:21:06;;;;;;;3.67;1.70;;;3.90;99.90;;;;;;5077803;28;20454;-72
2022/02/20 01:23:33;;;;;;;3.37;2.30;;;3.80;99.90;;;;;;5077817;28;20493;-71
2022/02/20 01:26:00;;;;;;;4.67;2.30;;;3.80;99.90;;;;;;5077995;28;20454;-72
2022/02/20 01:28:28;;;;;;;6.00;2.20;;;3.80;99.90;;;;;;5077400;28;20458;-72
2022/02/20 01:30:54;;;;;;;6.57;2.83;;;3.80;99.90;;;;;;5077586;28;20565;-71
2022/02/20 01:33:21;;;;;;;8.43;2.90;;;3.80;99.90;;;;;;5078007;28;20454;-72
2022/02/20 01:35:48;;;;;;;4.23;2.43;;;3.80;99.90;;;;;;5077423;28;20454;-72
2022/02/20 01:38:15;;;;;;;3.90;2.53;;;3.80;99.90;;;;;;5077460;28;20454;-73
2022/02/20 01:40:42;;;;;;;4.37;2.37;;;3.70;99.90;;;;;;5077432;28;20462;-71
2022/02/20 01:43:10;;;;;;;3.47;2.70;;;3.70;99.90;;;;;;5077072;28;20454;-72
2022/02/20 01:45:39;;;;;;;11.20;2.70;;;3.70;99.90;;;;;;5077615;28;20861;-72
2022/02/20 01:48:08;;;;;;;6.33;3.20;;;3.70;99.90;;;;;;5077536;28;20454;-71
2022/02/20 01:50:35;;;;;;;5.30;3.20;;;3.70;99.90;;;;;;5080180;28;20454;-71
2022/02/20 01:53:03;;;;;;;4.13;3.10;;;3.60;99.90;;;;;;5082349;28;20446;-72
2022/02/20 01:55:30;;;;;;;5.77;3.03;;;3.60;99.90;;;;;;5082147;28;20514;-72
2022/02/20 01:57:57;;;;;;;4.00;3.20;;;3.50;99.90;;;;;;5081263;28;20469;-72
2022/02/20 02:00:25;;;;;;;7.30;3.87;;;3.50;99.90;;;;;;5080033;28;20465;-70
2022/02/20 02:02:53;;;;;;;15.40;3.70;;;3.40;99.90;;;;;;5077921;28;20482;-72
2022/02/20 02:05:19;;;;;;;5.83;3.70;;;3.30;99.90;;;;;;5077452;28;20490;-72
2022/02/20 02:07:46;;;;;;;5.20;3.33;;;3.30;99.90;;;;;;5077698;28;20454;-72
2022/02/20 02:10:13;;;;;;;8.77;3.97;;;3.30;99.90;;;;;;5076789;28;20902;-72
2022/02/20 02:12:42;;;;;;;5.30;4.03;;;3.40;99.90;;;;;;5077307;28;20462;-72
2022/02/20 02:15:10;;;;;;;6.10;3.53;;;3.40;99.90;;;;;;5076860;28;20454;-73
2022/02/20 02:17:37;;;;;;;8.47;3.50;;;3.40;99.90;;;;;;5076935;28;20469;-73
2022/02/20 02:20:09;;;;;;;5.47;3.50;;;3.30;99.90;;;;;;5077083;28;20886;-72
2022/02/20 02:22:40;;;;;;;6.00;3.60;;;3.30;99.90;;;;;;5078091;28;20481;-72
2022/02/20 02:25:08;;;;;;;3.57;3.27;;;3.30;99.90;;;;;;5076638;28;20467;-72
2022/02/20 02:27:35;;;;;;;3.90;3.60;;;3.20;99.90;;;;;;5076075;28;20469;-72
2022/02/20 02:30:04;;;;;;;6.23;3.93;;;3.20;99.90;;;;;;5076806;28;20803;-72
2022/02/20 02:32:30;;;;;;;9.90;3.80;;;3.10;99.90;;;;;;5077796;28;20454;-72
2022/02/20 02:34:57;;;;;;;10.63;3.77;;;3.10;99.90;;;;;;5079373;28;20466;-71
2022/02/20 02:37:24;;;;;;;3.77;3.13;;;3.10;99.90;;;;;;5079042;28;20454;-72
2022/02/20 02:39:56;;;;;;;4.40;3.33;;;3.10;99.90;;;;;;5078870;28;20462;-72
2022/02/20 02:42:25;;;;;;;4.60;2.87;;;3.10;99.90;;;;;;5078840;28;20435;-72
2022/02/20 02:44:52;;;;;;;5.80;3.80;;;3.10;99.90;;;;;;5077470;28;20490;-72
2022/02/20 02:47:19;;;;;;;3.50;3.20;;;3.10;99.90;;;;;;5075717;28;20469;-72
2022/02/20 02:49:47;;;;;;;4.83;3.40;;;3.10;99.90;;;;;;5075520;28;20512;-72
2022/02/20 02:52:14;;;;;;;11.17;3.53;;;3.10;99.90;;;;;;5075736;28;20454;-72
2022/02/20 02:54:41;;;;;;;3.97;3.00;;;3.10;99.90;;;;;;5075271;28;20481;-72
2022/02/20 02:57:09;;;;;;;5.70;4.10;;;3.20;99.90;;;;;;5075575;28;20504;-71
2022/02/20 02:59:35;;;;;;;5.17;3.50;;;3.20;99.90;;;;;;5075287;28;20453;-72
2022/02/20 03:02:04;;;;;;;3.63;3.27;;;3.20;99.90;;;;;;5075684;28;20458;-72
2022/02/20 03:04:31;;;;;;;4.93;3.20;;;3.10;99.90;;;;;;5074495;28;20490;-72
2022/02/20 03:06:58;;;;;;;5.10;3.43;;;3.20;99.90;;;;;;5075287;28;20853;-72
2022/02/20 03:09:26;;;;;;;3.47;3.17;;;3.20;99.90;;;;;;5075228;28;20462;-72
2022/02/20 03:11:53;;;;;;;5.30;3.60;;;3.20;99.90;;;;;;5074891;28;21050;-71
2022/02/20 03:14:21;;;;;;;5.80;2.80;;;3.30;99.90;;;;;;5075182;28;20458;-71
2022/02/20 03:16:48;;;;;;;4.03;2.97;;;3.30;99.90;;;;;;5074844;28;20473;-71
2022/02/20 03:19:16;;;;;;;5.33;4.00;;;3.30;99.90;;;;;;5075082;28;20469;-72
2022/02/20 03:21:43;;;;;;;4.00;3.17;;;3.30;99.90;;;;;;5075143;28;20458;-71
2022/02/20 03:24:10;;;;;;;4.57;3.27;;;3.30;99.90;;;;;;5075008;28;20787;-72
2022/02/20 03:26:36;;;;;;;4.20;3.37;;;3.30;99.90;;;;;;5074925;28;20465;-71
2022/02/20 03:29:03;;;;;;;5.90;2.93;;;3.30;99.90;;;;;;5075094;28;20458;-72
2022/02/20 03:31:33;;;;;;;3.13;2.80;;;3.30;99.90;;;;;;5074624;28;20484;-72
2022/02/20 03:34:02;;;;;;;7.43;3.00;;;3.20;99.90;;;;;;5075252;28;20450;-70
2022/02/20 03:36:31;;;;;;;3.63;3.20;;;3.20;99.90;;;;;;5074484;28;20927;-71
2022/02/20 03:38:58;;;;;;;8.30;3.50;;;3.20;99.90;;;;;;5075228;28;20516;-71
2022/02/20 03:41:24;;;;;;;3.33;3.03;;;3.20;99.90;;;;;;5075306;28;20550;-70
2022/02/20 03:43:58;;;;;;;4.83;3.43;;;3.20;99.90;;;;;;5074580;28;20465;-71
2022/02/20 03:46:25;;;;;;;4.03;3.57;;;3.20;99.90;;;;;;5074924;28;20533;-70
2022/02/20 03:48:53;;;;;;;5.00;3.27;;;3.20;99.90;;;;;;5074568;28;20549;-72
2022/02/20 03:51:20;;;;;;;3.57;3.27;;;3.20;99.90;;;;;;5074691;28;20457;-70
2022/02/20 03:53:47;;;;;;;3.57;3.27;;;3.20;99.90;;;;;;5074791;28;20465;-72
2022/02/20 03:56:14;;;;;;;3.50;2.63;;;3.30;99.90;;;;;;5074542;28;20462;-70
2022/02/20 03:58:41;;;;;;;4.80;3.60;;;3.20;99.90;;;;;;5074892;28;20790;-72
2022/02/20 04:01:07;;;;;;;6.57;4.97;;;3.30;99.90;;;;;;5074867;28;20545;-71
2022/02/20 04:03:34;;;;;;;4.10;3.37;;;3.30;99.90;;;;;;5074443;28;20531;-72
2022/02/20 04:06:03;;;;;;;7.03;3.60;;;3.30;99.90;;;;;;5074594;28;20807;-72
2022/02/20 04:08:30;;;;;;;5.03;3.47;;;3.30;99.90;;;;;;5074615;28;20779;-71
2022/02/20 04:10:56;;;;;;;3.17;2.87;;;3.30;99.90;;;;;;5074595;28;20481;-71
2022/02/20 04:13:23;;;;;;;3.37;3.07;;;3.30;99.90;;;;;;5074630;28;20458;-71
2022/02/20 04:15:50;;;;;;;4.67;3.40;;;3.30;99.90;;;;;;5077958;28;20511;-71
2022/02/20 04:18:16;;;;;;;3.27;2.97;;;3.40;99.90;;;;;;5078161;28;20454;-72
2022/02/20 04:20:43;;;;;;;5.50;3.57;;;3.40;99.90;;;;;;5078605;28;20830;-71
2022/02/20 04:23:11;;;;;;;3.30;3.00;;;3.30;99.90;;;;;;5078696;28;20461;-71
2022/02/20 04:25:38;;;;;;;2.90;2.20;;;3.40;99.90;;;;;;5077951;28;20478;-71
2022/02/20 04:28:05;;;;;;;3.53;3.23;;;3.40;99.90;;;;;;5078231;28;20466;-72
2022/02/20 04:30:36;;;;;;;2.93;2.73;;;3.30;99.90;;;;;;5077986;28;20482;-71
2022/02/20 04:33:05;;;;;;;4.40;3.47;;;3.30;99.90;;;;;;5078526;28;20443;-72
2022/02/20 04:35:32;;;;;;;3.10;2.80;;;3.40;99.90;;;;;;5078264;28;20450;-71
2022/02/20 04:37:59;;;;;;;4.00;3.57;;;3.40;99.90;;;;;;5078410;28;20781;-71
2022/02/20 04:40:27;;;;;;;6.23;3.10;;;3.40;99.90;;;;;;5077613;28;20923;-71
2022/02/20 04:42:57;;;;;;;3.13;2.87;;;3.40;99.90;;;;;;5078218;28;20465;-71
2022/02/20 04:45:24;;;;;;;4.73;3.00;;;3.40;99.90;;;;;;5077787;28;20489;-71
2022/02/20 04:47:52;;;;;;;6.80;3.43;;;3.40;99.90;;;;;;5077940;28;20556;-71
2022/02/20 04:50:19;;;;;;;3.30;3.00;;;3.50;99.90;;;;;;5078003;28;20473;-71
2022/02/20 04:52:48;;;;;;;5.33;2.80;;;3.50;99.90;;;;;;5078333;28;20470;-71
2022/02/20 04:55:15;;;;;;;3.53;2.70;;;3.60;99.90;;;;;;5077702;28;20458;-71
2022/02/20 04:57:45;;;;;;;4.40;4.00;;;3.60;99.90;;;;;;5077932;28;20470;-71
2022/02/20 05:00:14;;;;;;;4.40;4.00;;;3.60;99.90;;;;;;5077885;28;20449;-70
2022/02/20 05:02:43;;;;;;;5.10;4.70;;;3.60;99.90;;;;;;5077745;28;20835;-72
2022/02/20 05:05:10;;;;;;;5.27;4.43;;;3.60;99.90;;;;;;5078528;28;20482;-71
2022/02/20 05:07:37;;;;;;;8.40;5.83;;;3.60;99.90;;;;;;5080481;28;20560;-70
2022/02/20 05:10:05;;;;;;;5.90;5.40;;;3.60;99.90;;;;;;5082036;28;20465;-71
2022/02/20 05:12:31;;;;;;;7.10;5.27;;;3.60;99.90;;;;;;5084629;28;20477;-71
2022/02/20 05:14:59;;;;;;;7.80;5.50;;;3.60;99.90;;;;;;5082870;28;20523;-71
2022/02/20 05:17:26;;;;;;;6.53;6.03;;;3.60;99.90;;;;;;5078603;28;20450;-71
2022/02/20 05:19:53;;;;;;;4.90;4.50;;;3.60;99.90;;;;;;5077848;28;20473;-72
2022/02/20 05:22:21;;;;;;;5.67;5.07;;;3.60;99.90;;;;;;5076937;28;20930;-71
2022/02/20 05:24:50;;;;;;;4.90;4.50;;;3.60;99.90;;;;;;5077415;28;20478;-71
2022/02/20 05:27:17;;;;;;;5.17;4.67;;;3.60;99.90;;;;;;5076358;28;20458;-71
2022/02/20 05:29:43;;;;;;;5.50;4.17;;;3.60;99.90;;;;;;5077066;28;20766;-70
2022/02/20 05:32:11;;;;;;;5.50;3.97;;;3.70;99.90;;;;;;5077233;28;20830;-71
2022/02/20 05:34:38;;;;;;;4.97;3.70;;;3.70;99.90;;;;;;5077291;28;20454;-71
2022/02/20 05:37:07;;;;;;;5.07;3.50;;;3.60;99.90;;;;;;5077344;28;20466;-71
2022/02/20 05:39:33;;;;;;;4.20;3.80;;;3.60;99.90;;;;;;5076935;28;20450;-71
2022/02/20 05:42:00;;;;;;;4.77;4.30;;;3.60;99.90;;;;;;5076670;28;20960;-71
2022/02/20 05:44:27;;;;;;;4.30;3.90;;;3.60;99.90;;;;;;5076975;28;20473;-71
2022/02/20 05:46:53;;;;;;;4.20;3.80;;;3.60;99.90;;;;;;5076594;28;20462;-71
2022/02/20 05:49:23;;;;;;;4.17;3.77;;;3.50;99.90;;;;;;5076780;28;20496;-70
2022/02/20 05:51:50;;;;;;;4.40;3.87;;;3.60;99.90;;;;;;5076812;28;20473;-70
2022/02/20 05:54:16;;;;;;;4.47;4.07;;;3.60;99.90;;;;;;5076797;28;20462;-70
2022/02/20 05:56:43;;;;;;;6.23;4.00;;;3.60;99.90;;;;;;5076677;28;20802;-70
2022/02/20 05:59:10;;;;;;;4.60;4.20;;;3.60;99.90;;;;;;5076604;28;20458;-70
2022/02/20 06:01:36;;;;;;;5.00;4.50;;;3.60;99.90;;;;;;5076781;28;20929;-70
2022/02/20 06:04:03;;;;;;;5.17;4.30;;;3.60;99.90;;;;;;5076714;28;20491;-71
2022/02/20 06:06:32;;;;;;;4.60;4.20;;;3.60;99.90;;;;;;5076631;28;20478;-71
2022/02/20 06:08:59;;;;;;;4.43;4.03;;;3.60;99.90;;;;;;5076572;28;20486;-70
2022/02/20 06:11:26;;;;;;;4.13;3.73;;;3.70;99.90;;;;;;5076319;28;20466;-71
2022/02/20 06:13:56;;;;;;;5.63;4.47;;;3.70;99.90;;;;;;5076353;28;20458;-71
2022/02/20 06:16:22;;;;;;;6.07;4.20;;;3.70;99.90;;;;;;5076032;28;20466;-70
2022/02/20 06:18:49;;;;;;;4.43;3.97;;;3.70;99.90;;;;;;5075981;28;20458;-69
2022/02/20 06:21:17;;;;;;;5.47;3.70;;;3.70;99.90;;;;;;5076049;28;20524;-70
2022/02/20 06:23:45;;;;;;;4.23;3.83;;;3.80;99.90;;;;;;5075810;28;20469;-69
2022/02/20 06:26:11;;;;;;;4.77;4.03;;;3.70;99.90;;;;;;5075863;28;20492;-69
2022/02/20 06:28:38;;;;;;;4.50;4.10;;;3.80;99.90;;;;;;5076049;28;20469;-70
2022/02/20 06:31:05;;;;;;;4.40;4.00;;;3.80;99.90;;;;;;5075663;28;20560;-70
2022/02/20 06:33:31;;;;;;;4.73;4.33;;;3.80;99.90;;;;;;5075573;28;20923;-71
2022/02/20 06:35:58;;;;;;;4.30;3.90;;;3.80;99.90;;;;;;5075398;28;20929;-69
2022/02/20 06:38:25;;;;;;;5.30;4.60;;;3.80;99.90;;;;;;5076460;28;20551;-69
2022/02/20 06:40:53;;;;;;;4.83;4.33;;;3.80;99.90;;;;;;5075537;28;20458;-69
2022/02/20 06:43:20;;;;;;;5.00;4.60;;;3.80;99.90;;;;;;5075782;28;20458;-69
2022/02/20 06:45:46;;;;;;;4.20;3.77;;;3.80;99.90;;;;;;5075899;28;20474;-70
2022/02/20 06:48:13;;;;;;;4.10;3.70;;;3.80;99.90;;;;;;5075643;28;20798;-69
2022/02/20 06:50:40;;;;;;;4.80;4.40;;;3.90;99.90;;;;;;5075790;28;20470;-69
2022/02/20 06:53:06;;;;;;;5.00;4.17;;;3.90;99.90;;;;;;5075499;28;20469;-69
2022/02/20 06:55:34;;;;;;;5.43;4.80;;;3.90;99.90;;;;;;5075625;28;20941;-69
2022/02/20 06:58:03;;;;;;;5.77;5.17;;;3.90;99.90;;;;;;5075749;28;20817;-69
2022/02/20 07:00:29;;;;;;;6.27;4.80;;;3.90;99.90;;;;;;5075275;28;20830;-69
2022/02/20 07:02:58;;;;;;;4.90;4.40;;;3.90;99.90;;;;;;5075443;28;20458;-70
2022/02/20 07:05:25;;;;;;;4.80;4.40;;;3.90;99.90;;;;;;5075023;28;20485;-70
2022/02/20 07:07:53;;;;;;;5.43;4.10;;;3.90;99.90;;;;;;5075575;28;20462;-70
2022/02/20 07:10:20;;;;;;;5.30;4.70;;;3.90;99.90;;;;;;5074943;28;20458;-70
2022/02/20 07:12:47;;;;;;;4.97;4.47;;;3.90;99.90;;;;;;5075380;28;20462;-69
2022/02/20 07:15:18;;;;;;;5.90;4.40;;;4.00;99.90;;;;;;5075166;28;20454;-69
2022/02/20 07:17:47;;;;;;;5.00;4.33;;;4.00;99.90;;;;;;5075260;28;20434;-70
2022/02/20 07:20:13;;;;;;;7.23;4.10;;;4.00;99.90;;;;;;5075191;28;20466;-70
2022/02/20 07:22:40;;;;;;;4.73;4.20;;;4.00;99.90;;;;;;5075460;28;20466;-68
2022/02/20 07:25:08;;;;;;;4.83;4.40;;;4.00;99.90;;;;;;5075513;28;20458;-70
2022/02/20 07:27:39;;;;;;;4.67;4.27;;;4.00;99.90;;;;;;5075244;28;20472;-71
2022/02/20 07:30:07;;;;;;;4.80;3.63;;;4.00;99.90;;;;;;5074663;28;20966;-70
2022/02/20 07:32:35;;;;;;;4.03;3.63;;;4.00;99.90;;;;;;5074973;28;20461;-70
2022/02/20 07:35:03;;;;;;;4.60;4.07;;;4.00;99.90;;;;;;5075049;28;20747;-69
2022/02/20 07:37:30;;;;;;;5.20;4.33;;;4.10;99.90;;;;;;5074868;28;20446;-68
2022/02/20 07:39:57;;;;;;;4.53;4.13;;;4.10;99.90;;;;;;5074842;28;20457;-69
2022/02/20 07:42:24;;;;;;;4.93;4.43;;;4.10;99.90;;;;;;5075067;28;20454;-70
2022/02/20 07:44:51;;;;;;;5.47;4.97;;;4.20;99.90;;;;;;5074829;28;20469;-69
2022/02/20 07:47:18;;;;;;;5.20;4.70;;;4.20;99.90;;;;;;5074568;28;20982;-69
2022/02/20 07:49:48;;;;;;;6.50;4.53;;;4.20;99.90;;;;;;5074351;28;20469;-70
2022/02/20 07:52:15;;;;;;;5.07;4.47;;;4.30;99.90;;;;;;5074695;28;20434;-69
2022/02/20 07:54:42;;;;;;;4.57;4.13;;;4.30;99.90;;;;;;5074521;28;20458;-70
2022/02/20 07:57:09;;;;;;;5.63;3.97;;;4.30;99.90;;;;;;5074532;28;20450;-69
2022/02/20 07:59:37;;;;;;;5.70;4.40;;;4.30;99.90;;;;;;5074923;28;20511;-69
2022/02/20 08:02:04;;;;;;;5.10;4.60;;;4.30;99.90;;;;;;5074846;28;20545;-69
2022/02/20 08:04:31;;;;;;;5.50;5.00;;;4.30;99.90;;;;;;5074710;28;20454;-70
2022/02/20 08:06:59;;;;;;;8.03;4.83;;;4.40;99.90;;;;;;5074662;28;20531;-70
2022/02/20 08:09:28;;;;;;;5.50;4.77;;;4.40;99.90;;;;;;5074884;28;20531;-70
2022/02/20 08:11:54;;;;;;;4.90;4.27;;;4.40;99.90;;;;;;5074842;28;20468;-70
2022/02/20 08:14:21;;;;;;;5.13;4.63;;;4.40;99.90;;;;;;5074458;28;20469;-69
2022/02/20 08:16:51;;;;;;;6.13;5.00;;;4.50;99.90;;;;;;5074959;28;20461;-69
2022/02/20 08:19:17;;;;;;;6.23;5.63;;;4.60;99.90;;;;;;5075531;28;20536;-69
2022/02/20 08:21:44;;;;;;;6.93;6.10;;;4.70;99.90;;;;;;5076539;28;20454;-69
2022/02/20 08:24:12;;;;;;;6.90;5.57;;;4.70;99.90;;;;;;5078125;28;20462;-69
2022/02/20 08:26:48;;;;;;;7.10;6.40;;;4.70;99.90;;;;;;5082014;28;20470;-73
2022/02/20 08:29:19;;;;;;;6.93;6.23;;;4.80;99.90;;;;;;5076504;28;20442;-71
2022/02/20 08:31:45;;;;;;;10.23;7.27;;;4.80;99.90;;;;;;5082048;28;20882;-71
2022/02/20 08:34:12;;;;;;;8.33;5.50;;;4.80;99.90;;;;;;5080443;28;20458;-72
2022/02/20 08:36:39;;;;;;;5.53;5.00;;;4.80;99.90;;;;;;5076151;28;20446;-71
2022/02/20 08:39:06;;;;;;;6.80;5.43;;;4.90;99.90;;;;;;5078157;28;20458;-70
2022/02/20 08:41:35;;;;;;;5.70;5.20;;;4.90;99.90;;;;;;5078601;28;20491;-69
2022/02/20 08:44:01;;;;;;;5.43;4.93;;;4.90;99.90;;;;;;5077918;28;20486;-70
2022/02/20 08:46:28;;;;;;;5.30;4.67;;;4.90;99.90;;;;;;5074615;28;20484;-69
2022/02/20 08:48:55;;;;;;;6.20;5.57;;;4.90;99.90;;;;;;5074890;28;20462;-69
2022/02/20 08:51:21;;;;;;;5.03;4.53;;;4.90;99.90;;;;;;5075869;28;20454;-70
2022/02/20 08:53:51;;;;;;;6.10;4.80;;;4.90;99.90;;;;;;5077203;28;20468;-69
2022/02/20 08:56:19;;;;;;;4.60;4.13;;;4.90;99.90;;;;;;5077251;28;20450;-70
2022/02/20 08:58:47;;;;;;;5.50;5.00;;;5.00;99.90;;;;;;5079974;28;20934;-73
2022/02/20 09:01:14;;;;;;;5.30;4.80;;;5.00;99.90;;;;;;5084966;28;20454;-73
2022/02/20 09:03:41;;;;;;;6.20;4.90;;;5.10;99.90;;;;;;5086280;28;20458;-73
2022/02/20 09:06:08;;;;;;;6.10;5.03;;;5.10;99.90;;;;;;5086138;28;20477;-74
2022/02/20 09:08:35;;;;;;;7.20;5.50;;;5.10;99.90;;;;;;5085879;28;20450;-74
2022/02/20 09:11:02;;;;;;;5.53;4.80;;;5.20;99.90;;;;;;5086945;28;20469;-73
2022/02/20 09:13:28;;;;;;;6.23;5.00;;;5.20;99.90;;;;;;5084567;28;20470;-73
2022/02/20 09:15:59;;;;;;;5.20;4.70;;;5.30;99.90;;;;;;5083041;28;20458;-74
2022/02/20 09:18:26;;;;;;;5.87;5.27;;;5.40;99.90;;;;;;5083804;28;20466;-73
2022/02/20 09:20:53;;;;;;;5.67;5.10;;;5.30;99.90;;;;;;5082471;28;20465;-74
2022/02/20 09:23:20;;;;;;;5.67;5.07;;;5.40;99.90;;;;;;5083641;28;20476;-76
2022/02/20 09:25:50;;;;;;;5.93;5.17;;;5.40;99.90;;;;;;5085925;28;20802;-73
2022/02/20 09:28:17;;;;;;;6.13;5.03;;;5.40;99.90;;;;;;5086104;28;20449;-75
2022/02/20 09:30:44;;;;;;;6.73;5.10;;;5.40;99.90;;;;;;5085443;28;20509;-73
2022/02/20 09:33:12;;;;;;;6.87;5.17;;;5.50;99.90;;;;;;5083855;28;20462;-74
2022/02/20 09:35:39;;;;;;;5.37;4.87;;;5.60;99.90;;;;;;5084605;28;20780;-74
2022/02/20 09:38:06;;;;;;;5.27;4.00;;;5.70;99.90;;;;;;5083746;28;20457;-73
2022/02/20 09:40:33;;;;;;;5.50;4.60;;;5.70;99.90;;;;;;5085453;28;20465;-73
2022/02/20 09:43:01;;;;;;;5.73;4.97;;;5.60;99.90;;;;;;5082780;28;20468;-73
2022/02/20 09:45:28;;;;;;;6.50;5.13;;;5.60;99.90;;;;;;5082978;28;20451;-74
2022/02/20 09:47:57;;;;;;;7.50;5.80;;;5.70;99.90;;;;;;5081771;28;20819;-70
2022/02/20 09:50:26;;;;;;;5.37;4.87;;;5.70;99.90;;;;;;5077574;28;20770;-70
2022/02/20 09:52:53;;;;;;;4.93;4.43;;;5.70;99.90;;;;;;5077419;28;20458;-70
2022/02/20 09:55:19;;;;;;;6.50;4.97;;;5.70;99.90;;;;;;5077377;28;20458;-69
2022/02/20 09:57:48;;;;;;;5.30;4.63;;;5.70;99.90;;;;;;5076969;28;20455;-70
2022/02/20 10:00:17;;;;;;;4.87;4.37;;;5.60;99.90;;;;;;5076806;28;20451;-69
2022/02/20 10:02:46;;;;;;;5.70;4.90;;;5.70;99.90;;;;;;5076678;28;20942;-69
2022/02/20 10:05:18;;;;;;;6.30;5.20;;;5.70;99.90;;;;;;5077434;28;20780;-69
2022/02/20 10:07:47;;;;;;;8.23;4.73;;;5.70;99.90;;;;;;5078514;28;20485;-69
2022/02/20 10:10:18;;;;;;;5.10;4.53;;;5.70;99.90;;;;;;5078205;28;20942;-69
2022/02/20 10:12:57;;;;;;;6.00;5.10;;;5.70;99.90;;;;;;5078907;28;20453;-69
2022/02/20 10:15:29;;;;;;;5.97;4.97;;;5.80;99.90;;;;;;5079124;28;20438;-69
2022/02/20 10:18:02;;;;;;;6.20;5.30;;;5.70;99.90;;;;;;5079930;28;20465;-68
2022/02/20 10:20:29;;;;;;;5.23;4.73;;;5.80;99.90;;;;;;5078238;28;20438;-69
2022/02/20 10:22:57;;;;;;;5.87;4.77;;;5.80;99.90;;;;;;5077332;28;20810;-68
2022/02/20 10:25:24;;;;;;;5.83;5.17;;;5.80;99.90;;;;;;5076911;28;20462;-69
2022/02/20 10:27:53;;;;;;;5.00;4.50;;;5.90;99.90;;;;;;5077208;28;20470;-68
2022/02/20 10:30:22;;;;;;;7.90;6.00;;;5.90;99.90;;;;;;5077112;28;20478;-69
2022/02/20 10:33:03;;;;;;;8.10;5.33;;;5.90;99.90;;;;;;5076932;28;20811;-68
2022/02/20 10:35:32;;;;;;;7.10;5.70;;;6.00;99.90;;;;;;5077892;28;20535;-69
2022/02/20 10:38:08;;;;;;;5.67;5.07;;;6.10;99.90;;;;;;5077478;28;20510;-69
2022/02/20 10:40:36;;;;;;;7.77;5.40;;;6.10;99.90;;;;;;5076587;28;20941;-70
2022/02/20 10:43:05;;;;;;;5.80;4.70;;;6.30;99.90;;;;;;5075829;28;20490;-69
2022/02/20 10:45:34;;;;;;;5.90;5.27;;;6.30;99.90;;;;;;5075987;28;20933;-70
2022/02/20 10:48:02;;;;;;;6.67;5.97;;;6.30;99.90;;;;;;5076447;28;20835;-69
2022/02/20 10:50:30;;;;;;;5.60;5.00;;;6.30;99.90;;;;;;5075988;28;20460;-70
2022/02/20 10:53:12;;;;;;;7.17;6.13;;;6.30;99.90;;;;;;5075812;28;20458;-69
2022/02/20 10:55:42;;;;;;;6.13;5.63;;;6.40;99.90;;;;;;5075679;28;20443;-69
2022/02/20 10:58:17;;;;;;;6.10;5.50;;;6.50;99.90;;;;;;5075388;28;20938;-70
2022/02/20 11:00:55;;;;;;;6.40;5.40;;;6.60;99.90;;;;;;5075851;28;20453;-69
2022/02/20 11:03:23;;;;;;;5.83;5.10;;;6.70;99.90;;;;;;5075710;28;20477;-69
2022/02/20 11:05:50;;;;;;;6.23;5.57;;;6.70;99.90;;;;;;5075420;28;20474;-69
2022/02/20 11:08:20;;;;;;;7.03;5.73;;;6.80;99.90;;;;;;5075444;28;20556;-69
2022/02/20 11:10:48;;;;;;;7.27;5.10;;;6.80;99.90;;;;;;5075232;28;20769;-68
2022/02/20 11:13:17;;;;;;;8.03;5.37;;;6.80;99.90;;;;;;5075461;28;20779;-70
2022/02/20 11:15:45;;;;;;;4.93;4.43;;;6.80;99.90;;;;;;5075138;28;20533;-69
2022/02/20 11:18:16;;;;;;;7.13;5.20;;;6.80;99.90;;;;;;5075186;28;20533;-69
2022/02/20 11:20:48;;;;;;;6.50;5.47;;;6.80;99.90;;;;;;5076860;28;20878;-71
2022/02/20 11:23:23;;;;;;;6.10;5.10;;;6.80;99.90;;;;;;5077116;28;20438;-70
2022/02/20 11:25:52;;;;;;;5.13;4.63;;;6.70;99.90;;;;;;5076981;28;20458;-70
2022/02/20 11:28:19;;;;;;;5.07;4.53;;;6.60;99.90;;;;;;5075623;28;20482;-69
2022/02/20 11:30:46;;;;;;;6.73;4.03;;;6.60;99.90;;;;;;5074745;28;20485;-70
2022/02/20 11:33:14;;;;;;;5.30;4.50;;;6.50;99.90;;;;;;5075185;28;20458;-69
2022/02/20 11:35:43;;;;;;;5.60;4.50;;;6.50;99.90;;;;;;5075035;28;20469;-69
2022/02/20 11:38:12;;;;;;;5.70;3.80;;;6.40;99.90;;;;;;5075648;28;20460;-69
2022/02/20 11:40:59;;;;;;;6.43;4.10;;;6.30;99.90;;;;;;5075364;28;20953;-69
2022/02/20 11:43:41;;;;;;;5.63;4.37;;;6.30;99.90;;;;;;5075342;28;20450;-69
2022/02/20 11:46:11;;;;;;;4.13;3.70;;;6.20;99.90;;;;;;5075160;28;20459;-69
2022/02/20 11:48:38;;;;;;;4.33;3.87;;;6.20;99.90;;;;;;5075247;28;20492;-69
2022/02/20 11:51:14;;;;;;;5.13;4.07;;;6.10;99.90;;;;;;5074584;28;20454;-68
2022/02/20 11:53:41;;;;;;;5.53;3.30;;;6.00;99.90;;;;;;5074926;28;20458;-70
2022/02/20 11:56:12;;;;;;;4.70;3.80;;;5.90;99.90;;;;;;5074801;28;20765;-70
2022/02/20 11:58:40;;;;;;;3.93;3.43;;;5.80;99.90;;;;;;5074318;28;20912;-70
2022/02/20 12:01:16;;;;;;;6.03;4.53;;;5.80;99.90;;;;;;5074241;28;20977;-70
2022/02/20 12:04:04;;;;;;;5.00;4.60;;;5.70;99.90;;;;;;5074440;28;20434;-69
2022/02/20 12:06:36;;;;;;;6.73;4.50;;;5.70;99.90;;;;;;5074733;28;20505;-70
2022/02/20 12:09:03;;;;;;;5.53;4.47;;;5.60;99.90;;;;;;5074423;28;20879;-69
2022/02/20 12:11:43;;;;;;;6.03;4.13;;;5.50;99.90;;;;;;5074484;28;20450;-69
2022/02/20 12:14:30;;;;;;;6.03;4.47;;;5.40;99.90;;;;;;5074586;28;20449;-70
2022/02/20 12:16:58;;;;;;;7.10;5.87;;;5.40;99.90;;;;;;5077771;28;20899;-69
2022/02/20 12:19:32;;;;;;;5.47;4.87;;;5.30;99.90;;;;;;5078824;28;20454;-70
2022/02/20 12:22:06;;;;;;;9.57;4.60;;;5.30;99.90;;;;;;5075844;28;20449;-69
2022/02/20 12:24:49;;;;;;;6.40;4.83;;;5.30;99.90;;;;;;5074763;28;20458;-70
2022/02/20 12:27:23;;;;;;;8.50;5.27;;;5.20;99.90;;;;;;5074766;28;20470;-70
2022/02/20 12:29:52;;;;;;;6.20;4.63;;;5.20;99.90;;;;;;5076644;28;20565;-70
2022/02/20 12:32:24;;;;;;;7.77;5.83;;;5.10;99.90;;;;;;5076898;28;20449;-73
2022/02/20 12:34:57;;;;;;;8.50;5.40;;;5.10;99.90;;;;;;5077610;28;20442;-72
2022/02/20 12:37:26;;;;;;;9.57;5.23;;;5.10;99.90;;;;;;5081910;28;20551;-73
2022/02/20 12:39:55;;;;;;;7.60;4.40;;;5.00;99.90;;;;;;5082229;28;20953;-72
2022/02/20 12:42:24;;;;;;;7.10;5.57;;;5.00;99.90;;;;;;5083024;28;20464;-73
2022/02/20 12:44:53;;;;;;;7.67;5.47;;;5.00;99.90;;;;;;5083033;28;20467;-73
2022/02/20 12:47:22;;;;;;;5.90;4.60;;;5.00;99.90;;;;;;5087241;28;20478;-72
2022/02/20 12:49:53;;;;;;;8.10;5.50;;;4.90;99.90;;;;;;5084917;28;20511;-72
2022/02/20 12:52:21;;;;;;;7.83;5.50;;;4.90;99.90;;;;;;5084335;28;20454;-72
2022/02/20 12:54:55;;;;;;;7.00;5.50;;;4.90;99.90;;;;;;5081687;28;20456;-74
2022/02/20 12:57:26;;;;;;;7.60;5.33;;;5.00;99.90;;;;;;5078298;28;20441;-73
2022/02/20 12:59:57;;;;;;;8.07;5.20;;;4.90;99.90;;;;;;5078330;28;20454;-74
2022/02/20 13:02:32;;;;;;;8.47;5.77;;;4.90;99.90;;;;;;5077843;28;20875;-72